createdAt,value
2023-05-18T00:02:07.095Z,9.70
2023-05-18T00:08:00.376Z,9.80
2023-05-18T00:16:20.227Z,9.90
2023-05-18T00:26:59.836Z,9.90
2023-05-18T00:37:19.544Z,9.80
2023-05-18T00:43:12.767Z,9.80
2023-05-18T00:49:06.565Z,9.80
2023-05-18T00:55:01.757Z,9.70
2023-05-18T01:06:00.174Z,9.50
2023-05-18T01:17:33.843Z,9.70
2023-05-18T01:26:15.960Z,9.70
2023-05-18T01:37:18.917Z,9.60
2023-05-18T01:46:47.411Z,9.70
2023-05-18T01:52:45.640Z,9.70
2023-05-18T01:58:40.811Z,9.50
2023-05-18T02:04:36.391Z,9.60
2023-05-18T02:10:29.795Z,9.50
2023-05-18T02:16:23.244Z,9.50
2023-05-18T02:22:19.373Z,9.60
2023-05-18T02:28:12.916Z,9.60
2023-05-18T02:34:06.263Z,9.50
2023-05-18T02:40:01.012Z,9.40
2023-05-18T02:45:54.289Z,9.40
2023-05-18T02:51:47.585Z,9.20
2023-05-18T02:57:47.547Z,9.00
2023-05-18T03:08:02.638Z,9.20
2023-05-18T03:17:19.825Z,9.30
2023-05-18T03:23:13.160Z,9.30
2023-05-18T03:29:07.145Z,9.40
2023-05-18T03:36:03.901Z,9.40
2023-05-18T03:41:58.640Z,9.40
2023-05-18T03:47:52.751Z,9.20
2023-05-18T03:57:20.609Z,9.30
2023-05-18T04:03:14.972Z,9.30
2023-05-18T04:09:08.769Z,9.10
2023-05-18T04:15:04.160Z,9.30
2023-05-18T04:20:58.244Z,9.60
2023-05-18T04:26:51.310Z,9.30
2023-05-18T04:32:45.960Z,9.20
2023-05-18T04:38:39.369Z,9.30
2023-05-18T04:44:34.337Z,9.30
2023-05-18T04:50:29.600Z,9.30
2023-05-18T04:56:23.718Z,9.20
2023-05-18T05:02:17.570Z,9.30
2023-05-18T05:08:12.423Z,9.30
2023-05-18T05:14:06.260Z,9.50
2023-05-18T05:19:59.387Z,9.40
2023-05-18T05:25:54.145Z,9.60
2023-05-18T05:31:47.366Z,9.50
2023-05-18T05:37:41.167Z,9.60
2023-05-18T05:43:36.703Z,9.40
2023-05-18T05:49:30.212Z,9.60
2023-05-18T05:55:24.868Z,9.50
2023-05-18T06:01:20.406Z,9.70
2023-05-18T06:07:14.101Z,9.60
2023-05-18T06:13:08.482Z,9.70
2023-05-18T06:19:14.677Z,9.80
2023-05-18T06:25:10.890Z,10.10
2023-05-18T06:31:17.034Z,10.00
2023-05-18T06:37:20.070Z,10.00
2023-05-18T06:43:13.266Z,10.40
2023-05-18T06:49:22.942Z,10.20
2023-05-18T06:55:17.630Z,10.20
2023-05-18T07:01:11.030Z,10.30
2023-05-18T07:07:04.304Z,10.40
2023-05-18T07:12:58.866Z,10.40
2023-05-18T07:18:52.284Z,10.40
2023-05-18T07:24:45.380Z,10.50
2023-05-18T07:30:40.071Z,10.50
2023-05-18T07:36:33.400Z,10.70
2023-05-18T07:42:26.724Z,10.70
2023-05-18T07:48:21.363Z,10.50
2023-05-18T07:54:14.981Z,10.60
2023-05-18T08:00:10.583Z,10.80
2023-05-18T08:06:07.794Z,10.90
2023-05-18T08:12:00.844Z,11.00
2023-05-18T08:17:55.132Z,11.00
2023-05-18T08:23:49.707Z,10.80
2023-05-18T08:29:42.789Z,11.00
2023-05-18T08:35:36.310Z,11.10
2023-05-18T08:41:36.332Z,11.10
2023-05-18T08:47:31.320Z,11.20
2023-05-18T08:53:26.686Z,11.20
2023-05-18T08:59:25.296Z,11.00
2023-05-18T09:05:20.119Z,10.70
2023-05-18T09:11:14.969Z,10.50
2023-05-18T09:17:09.756Z,10.50
2023-05-18T09:23:02.879Z,10.90
2023-05-18T09:28:56.167Z,11.40
2023-05-18T09:34:51.009Z,11.40
2023-05-18T09:40:47.118Z,11.70
2023-05-18T09:46:41.356Z,12.20
2023-05-18T09:52:42.439Z,12.00
2023-05-18T09:58:36.435Z,12.20
2023-05-18T10:04:40.956Z,12.20
2023-05-18T10:10:40.007Z,12.40
2023-05-18T10:16:33.704Z,12.40
2023-05-18T10:22:29.128Z,12.50
2023-05-18T10:28:28.985Z,12.60
2023-05-18T10:34:25.025Z,13.30
2023-05-18T10:40:18.698Z,13.30
2023-05-18T10:46:16.460Z,13.50
2023-05-18T10:52:12.682Z,13.50
2023-05-18T10:58:10.361Z,13.50
2023-05-18T11:04:05.393Z,14.00
2023-05-18T11:10:01.846Z,14.80
2023-05-18T11:16:08.384Z,15.10
2023-05-18T11:22:13.377Z,15.40
2023-05-18T11:28:08.175Z,15.60
2023-05-18T11:34:01.343Z,15.20
2023-05-18T11:40:01.946Z,16.00
2023-05-18T11:45:59.719Z,15.90
2023-05-18T11:52:04.039Z,16.00
2023-05-18T11:57:58.458Z,15.30
2023-05-18T12:03:52.142Z,16.10
2023-05-18T12:09:47.003Z,16.10
2023-05-18T12:15:42.009Z,16.30
2023-05-18T12:21:37.585Z,16.10
2023-05-18T12:27:31.210Z,16.10
2023-05-18T12:33:26.157Z,16.80
2023-05-18T12:39:19.666Z,16.90
2023-05-18T12:45:13.100Z,17.50
2023-05-18T12:51:18.764Z,16.90
2023-05-18T12:57:12.845Z,17.00
2023-05-18T13:03:14.473Z,17.40
2023-05-18T13:09:14.090Z,17.50
2023-05-18T13:15:15.004Z,17.80
2023-05-18T13:21:09.305Z,18.30
2023-05-18T13:27:03.716Z,18.90
2023-05-18T13:32:57.562Z,19.00
2023-05-18T13:38:52.278Z,18.50
2023-05-18T13:44:47.326Z,19.00
2023-05-18T13:50:40.741Z,20.10
2023-05-18T13:56:33.851Z,21.50
2023-05-18T14:02:28.842Z,22.60
2023-05-18T14:08:22.518Z,22.30
2023-05-18T14:14:15.591Z,22.70
2023-05-18T14:20:11.421Z,23.00
2023-05-18T14:26:04.990Z,22.30
2023-05-18T14:31:58.503Z,22.90
2023-05-18T14:37:53.343Z,22.20
2023-05-18T14:43:47.649Z,21.40
2023-05-18T14:49:40.962Z,20.90
2023-05-18T14:55:35.432Z,20.70
2023-05-18T15:01:29.062Z,20.30
2023-05-18T15:07:22.597Z,19.90
2023-05-18T15:13:18.192Z,19.70
2023-05-18T15:19:11.908Z,19.70
2023-05-18T15:25:07.476Z,19.40
2023-05-18T15:31:02.366Z,18.80
2023-05-18T15:36:55.488Z,18.70
2023-05-18T15:42:48.777Z,18.80
2023-05-18T15:48:43.590Z,18.80
2023-05-18T15:54:37.133Z,18.10
2023-05-18T16:00:31.008Z,18.20
2023-05-18T16:06:26.102Z,18.00
2023-05-18T16:12:19.151Z,18.20
2023-05-18T16:18:12.668Z,18.00
2023-05-18T16:24:08.222Z,17.80
2023-05-18T16:30:01.784Z,17.70
2023-05-18T16:35:55.308Z,17.70
2023-05-18T16:41:50.198Z,17.90
2023-05-18T16:47:44.752Z,17.80
2023-05-18T16:53:38.595Z,17.80
2023-05-18T16:59:34.790Z,17.40
2023-05-18T17:05:28.271Z,17.40
2023-05-18T17:11:21.326Z,17.30
2023-05-18T17:17:15.721Z,17.40
2023-05-18T17:23:09.335Z,17.30
2023-05-18T17:29:02.377Z,17.10
2023-05-18T17:34:57.037Z,17.10
2023-05-18T17:40:50.309Z,17.00
2023-05-18T17:46:44.821Z,16.90
2023-05-18T17:52:39.469Z,16.80
2023-05-18T17:58:32.751Z,16.70
2023-05-18T18:04:25.931Z,16.60
2023-05-18T18:10:20.719Z,16.60
2023-05-18T18:16:14.016Z,16.50
2023-05-18T18:22:07.300Z,16.40
2023-05-18T18:28:01.942Z,16.30
2023-05-18T18:33:55.063Z,16.20
2023-05-18T18:39:48.413Z,15.90
2023-05-18T18:45:43.217Z,15.90
2023-05-18T18:51:36.276Z,15.80
2023-05-18T18:57:29.529Z,15.70
2023-05-18T19:03:24.318Z,15.60
2023-05-18T19:09:17.588Z,15.50
2023-05-18T19:15:13.484Z,15.50
2023-05-18T19:21:08.174Z,15.30
2023-05-18T19:27:01.533Z,15.30
2023-05-18T19:32:55.262Z,15.20
2023-05-18T19:38:52.405Z,15.10
2023-05-18T19:44:45.769Z,15.00
2023-05-18T19:50:39.017Z,14.90
2023-05-18T19:56:33.746Z,14.70
2023-05-18T20:07:27.925Z,14.40
2023-05-18T20:13:21.133Z,14.30
2023-05-18T20:19:14.980Z,14.10
2023-05-18T20:25:12.169Z,14.10
2023-05-18T20:31:05.196Z,13.80
2023-05-18T20:36:58.431Z,13.80
2023-05-18T20:42:54.450Z,13.90
2023-05-18T20:48:47.720Z,13.70
2023-05-18T20:54:41.004Z,13.60
2023-05-18T21:00:36.210Z,13.30
2023-05-18T21:06:29.624Z,13.20
2023-05-18T21:12:22.885Z,13.20
2023-05-18T21:18:17.731Z,13.30
2023-05-18T21:24:11.219Z,13.10
2023-05-18T21:30:04.702Z,13.20
2023-05-18T21:36:00.646Z,13.40
2023-05-18T21:41:53.694Z,13.00
2023-05-18T21:47:46.990Z,13.10
2023-05-18T21:53:41.476Z,13.00
2023-05-18T21:59:34.790Z,13.00
2023-05-18T22:05:27.834Z,12.50
2023-05-18T22:11:22.807Z,12.70
2023-05-18T22:17:16.612Z,12.90
2023-05-18T22:23:09.862Z,12.90
2023-05-18T22:29:04.555Z,12.30
2023-05-18T22:35:00.074Z,11.80
2023-05-18T22:40:54.231Z,11.70
2023-05-18T22:46:48.692Z,11.80
2023-05-18T22:52:42.105Z,11.70
2023-05-18T22:58:35.127Z,11.60
2023-05-18T23:04:29.522Z,11.70
2023-05-18T23:10:23.590Z,11.60
2023-05-18T23:16:16.873Z,11.40
2023-05-18T23:22:11.699Z,11.40
2023-05-18T23:28:04.972Z,11.40
2023-05-18T23:33:58.709Z,11.60
2023-05-18T23:39:53.884Z,11.80
2023-05-18T23:45:47.748Z,11.50
2023-05-18T23:51:42.622Z,11.40
2023-05-18T23:57:37.855Z,11.10
